aviador You're here:

KALS Decoded Metar

ALAMOSA in CO, USA
Report Time2018-04-24 17:52:00
UTC Time2018-04-24 18:33:49
Flight Rules vfr VFR
WindVRB at 04 kt
Visibility9999 m
Phenomena:N/A
Clouds:N/A
Expected CloudBase > 6,400 ft AGL from Temp-Dew spread
CeilingNone
Temp15°C (ISA +15)
Dew Point-1°C (34% RH)
AAT11.5°C
QNH1023 hPa
Density Alt9,026 ft
Elevation7,543 ft
Report Wrong Elevation
Raw Report
KALS 241752Z AUTO VRB04KT 10SM CLR 15/M01 A3021 RMK AO2 SLP176
T01501011 10150 20006 58016=

Extra information for KALS:More info

Metar Taf Metar & Taf Last 4 Metars F.Rules Stats Wind Profile Meteogram Temp Stats Airport Information Weather charts Add Link Nearby VenuesMetar ALERT Operation Metar Decoded Social comments

AIRNAV info for KALS